createdAt,value
2023-04-19T00:00:19.295Z,503.00
2023-04-19T00:01:19.339Z,504.00
2023-04-19T00:02:19.546Z,506.00
2023-04-19T00:03:19.556Z,502.00
2023-04-19T00:04:19.622Z,506.00
2023-04-19T00:05:19.486Z,500.00
2023-04-19T00:06:19.459Z,508.00
2023-04-19T00:07:19.494Z,509.00
2023-04-19T00:08:19.516Z,507.00
2023-04-19T00:09:19.578Z,503.00
2023-04-19T00:10:19.636Z,505.00
2023-04-19T00:11:19.709Z,501.00
2023-04-19T00:12:19.803Z,506.00
2023-04-19T00:13:19.896Z,507.00
2023-04-19T00:14:19.947Z,506.00
2023-04-19T00:15:20.011Z,508.00
2023-04-19T00:16:20.110Z,502.00
2023-04-19T00:17:20.164Z,505.00
2023-04-19T00:18:20.258Z,508.00
2023-04-19T00:19:20.327Z,508.00
2023-04-19T00:20:20.421Z,503.00
2023-04-19T00:21:20.477Z,508.00
2023-04-19T00:22:20.556Z,507.00
2023-04-19T00:23:20.636Z,505.00
2023-04-19T00:24:20.710Z,504.00
2023-04-19T00:25:20.781Z,504.00
2023-04-19T00:26:20.867Z,504.00
2023-04-19T00:27:20.924Z,503.00
2023-04-19T00:28:21.019Z,503.00
2023-04-19T00:29:21.041Z,503.00
2023-04-19T00:30:21.032Z,504.00
2023-04-19T00:31:21.075Z,505.00
2023-04-19T00:32:21.060Z,504.00
2023-04-19T00:33:21.078Z,503.00
2023-04-19T00:34:21.097Z,501.00
2023-04-19T00:35:21.109Z,506.00
2023-04-19T00:36:21.137Z,501.00
2023-04-19T00:37:21.169Z,505.00
2023-04-19T00:38:21.181Z,505.00
2023-04-19T00:39:21.211Z,506.00
2023-04-19T00:40:21.229Z,506.00
2023-04-19T00:41:21.257Z,508.00
2023-04-19T00:42:21.272Z,507.00
2023-04-19T00:43:21.293Z,505.00
2023-04-19T00:44:21.324Z,500.00
2023-04-19T00:45:21.344Z,508.00
2023-04-19T00:46:21.382Z,505.00
2023-04-19T00:47:21.403Z,504.00
2023-04-19T00:48:21.475Z,506.00
2023-04-19T00:49:21.551Z,505.00
2023-04-19T00:50:21.632Z,506.00
2023-04-19T00:51:21.713Z,506.00
2023-04-19T00:52:21.767Z,505.00
2023-04-19T00:53:21.852Z,507.00
2023-04-19T00:54:21.919Z,509.00
2023-04-19T00:55:22.002Z,504.00
2023-04-19T00:56:22.083Z,506.00
2023-04-19T00:57:22.185Z,509.00
2023-04-19T00:58:22.254Z,508.00
2023-04-19T00:59:22.320Z,505.00
2023-04-19T01:00:22.414Z,505.00
2023-04-19T01:01:22.513Z,505.00
2023-04-19T01:02:22.664Z,508.00
2023-04-19T01:03:22.890Z,506.00
2023-04-19T01:04:22.797Z,506.00
2023-04-19T01:05:22.721Z,507.00
2023-04-19T01:06:22.749Z,508.00
2023-04-19T01:07:22.754Z,508.00
2023-04-19T01:08:22.804Z,506.00
2023-04-19T01:09:22.818Z,507.00
2023-04-19T01:10:22.819Z,506.00
2023-04-19T01:11:22.848Z,509.00
2023-04-19T01:12:22.870Z,510.00
2023-04-19T01:13:22.904Z,501.00
2023-04-19T01:14:22.927Z,505.00
2023-04-19T01:15:22.952Z,505.00
2023-04-19T01:16:23.032Z,505.00
2023-04-19T01:17:23.007Z,503.00
2023-04-19T01:18:23.078Z,506.00
2023-04-19T01:19:23.095Z,506.00
2023-04-19T01:20:23.118Z,507.00
2023-04-19T01:21:23.136Z,508.00
2023-04-19T01:22:23.195Z,503.00
2023-04-19T01:23:23.200Z,506.00
2023-04-19T01:24:23.210Z,506.00
2023-04-19T01:25:23.232Z,505.00
2023-04-19T01:26:23.236Z,505.00
2023-04-19T01:27:23.260Z,502.00
2023-04-19T01:28:23.316Z,505.00
2023-04-19T01:29:23.414Z,503.00
2023-04-19T01:30:23.460Z,503.00
2023-04-19T01:31:24.268Z,501.00
2023-04-19T01:32:23.676Z,504.00
2023-04-19T01:33:23.705Z,504.00
2023-04-19T01:34:23.769Z,504.00
2023-04-19T01:35:23.843Z,503.00
2023-04-19T01:36:23.922Z,504.00
2023-04-19T01:37:23.971Z,508.00
2023-04-19T01:38:24.058Z,504.00
2023-04-19T01:39:24.125Z,509.00
2023-04-19T01:40:24.200Z,509.00
2023-04-19T01:41:24.286Z,503.00
2023-04-19T01:42:24.348Z,504.00
2023-04-19T01:43:24.440Z,504.00
2023-04-19T01:44:24.501Z,509.00
2023-04-19T01:45:24.559Z,505.00
2023-04-19T01:46:24.665Z,509.00
2023-04-19T01:47:24.688Z,509.00
2023-04-19T01:48:24.684Z,509.00
2023-04-19T01:49:24.703Z,511.00
2023-04-19T01:50:24.726Z,508.00
2023-04-19T01:51:24.733Z,513.00
2023-04-19T01:52:24.758Z,511.00
2023-04-19T01:53:24.790Z,514.00
2023-04-19T01:54:24.814Z,514.00
2023-04-19T01:55:24.829Z,512.00
2023-04-19T01:56:24.861Z,513.00
2023-04-19T01:57:24.908Z,511.00
2023-04-19T01:58:24.921Z,503.00
2023-04-19T01:59:24.945Z,515.00
2023-04-19T02:00:24.965Z,512.00
2023-04-19T02:01:25.112Z,513.00
2023-04-19T02:02:25.192Z,507.00
2023-04-19T02:03:25.287Z,513.00
2023-04-19T02:04:25.092Z,507.00
2023-04-19T02:05:25.084Z,505.00
2023-04-19T02:06:25.116Z,508.00
2023-04-19T02:07:25.186Z,512.00
2023-04-19T02:08:25.283Z,508.00
2023-04-19T02:09:25.327Z,509.00
2023-04-19T02:10:25.400Z,511.00
2023-04-19T02:11:25.472Z,511.00
2023-04-19T02:12:25.546Z,500.00
2023-04-19T02:13:25.608Z,516.00
2023-04-19T02:14:25.683Z,508.00
2023-04-19T02:15:25.756Z,508.00
2023-04-19T02:16:25.863Z,508.00
2023-04-19T02:17:25.922Z,507.00
2023-04-19T02:18:25.972Z,509.00
2023-04-19T02:19:26.057Z,508.00
2023-04-19T02:20:26.109Z,510.00
2023-04-19T02:21:26.204Z,506.00
2023-04-19T02:22:26.244Z,511.00
2023-04-19T02:23:26.329Z,509.00
2023-04-19T02:24:26.402Z,504.00
2023-04-19T02:25:26.476Z,505.00
2023-04-19T02:26:26.539Z,512.00
2023-04-19T02:27:26.620Z,508.00
2023-04-19T02:28:26.679Z,504.00
2023-04-19T02:29:26.754Z,512.00
2023-04-19T02:30:26.817Z,506.00
2023-04-19T02:31:26.972Z,509.00
2023-04-19T02:32:27.021Z,504.00
2023-04-19T02:33:27.084Z,507.00
2023-04-19T02:34:27.109Z,505.00
2023-04-19T02:35:27.171Z,507.00
2023-04-19T02:36:27.242Z,509.00
2023-04-19T02:37:27.326Z,508.00
2023-04-19T02:38:27.375Z,511.00
2023-04-19T02:39:27.452Z,505.00
2023-04-19T02:40:27.499Z,510.00
2023-04-19T02:41:27.639Z,508.00
2023-04-19T02:42:27.647Z,504.00
2023-04-19T02:43:27.734Z,510.00
2023-04-19T02:44:27.795Z,507.00
2023-04-19T02:45:27.866Z,507.00
2023-04-19T02:46:28.001Z,506.00
2023-04-19T02:47:28.032Z,504.00
2023-04-19T02:48:28.092Z,508.00
2023-04-19T02:49:28.163Z,506.00
2023-04-19T02:50:28.213Z,516.00
2023-04-19T02:51:28.273Z,507.00
2023-04-19T02:52:28.351Z,514.00
2023-04-19T02:53:28.444Z,509.00
2023-04-19T02:54:28.484Z,507.00
2023-04-19T02:55:28.557Z,507.00
2023-04-19T02:56:28.626Z,507.00
2023-04-19T02:57:28.707Z,503.00
2023-04-19T02:58:28.780Z,506.00
2023-04-19T02:59:28.872Z,512.00
2023-04-19T03:00:28.926Z,511.00
2023-04-19T03:01:29.015Z,506.00
2023-04-19T03:02:29.150Z,505.00
2023-04-19T03:03:29.226Z,511.00
2023-04-19T03:04:29.371Z,500.00
2023-04-19T03:05:29.323Z,512.00
2023-04-19T03:06:29.405Z,510.00
2023-04-19T03:07:29.413Z,511.00
2023-04-19T03:08:29.461Z,511.00
2023-04-19T03:09:29.470Z,513.00
2023-04-19T03:10:29.470Z,512.00
2023-04-19T03:11:29.510Z,515.00
2023-04-19T03:12:29.533Z,505.00
2023-04-19T03:13:29.597Z,515.00
2023-04-19T03:14:29.580Z,506.00
2023-04-19T03:15:29.587Z,506.00
2023-04-19T03:16:29.658Z,504.00
2023-04-19T03:17:29.687Z,505.00
2023-04-19T03:18:29.766Z,507.00
2023-04-19T03:19:29.852Z,511.00
2023-04-19T03:20:29.913Z,511.00
2023-04-19T03:21:30.002Z,510.00
2023-04-19T03:22:29.997Z,511.00
2023-04-19T03:23:30.012Z,511.00
2023-04-19T03:24:30.104Z,511.00
2023-04-19T03:25:30.051Z,512.00
2023-04-19T03:26:30.074Z,510.00
2023-04-19T03:27:30.108Z,501.00
2023-04-19T03:28:30.129Z,506.00
2023-04-19T03:29:30.222Z,507.00
2023-04-19T03:30:30.176Z,505.00
2023-04-19T03:31:30.258Z,512.00
2023-04-19T03:32:30.366Z,510.00
2023-04-19T03:33:30.384Z,514.00
2023-04-19T03:34:30.452Z,516.00
2023-04-19T03:35:30.523Z,509.00
2023-04-19T03:36:30.603Z,511.00
2023-04-19T03:37:30.680Z,505.00
2023-04-19T03:38:30.743Z,514.00
2023-04-19T03:39:30.809Z,509.00
2023-04-19T03:40:30.870Z,512.00
2023-04-19T03:41:30.970Z,509.00
2023-04-19T03:42:31.058Z,509.00
2023-04-19T03:43:31.128Z,506.00
2023-04-19T03:44:31.203Z,514.00
2023-04-19T03:45:31.272Z,509.00
2023-04-19T03:46:31.373Z,510.00
2023-04-19T03:47:31.369Z,510.00
2023-04-19T03:48:31.323Z,508.00
2023-04-19T03:49:31.357Z,513.00
2023-04-19T03:50:31.361Z,509.00
2023-04-19T03:51:31.388Z,510.00
2023-04-19T03:52:31.400Z,509.00
2023-04-19T03:53:31.740Z,511.00
2023-04-19T03:54:31.437Z,511.00
2023-04-19T03:55:31.492Z,513.00
2023-04-19T03:56:31.573Z,507.00
2023-04-19T03:57:31.641Z,507.00
2023-04-19T03:58:31.743Z,509.00
2023-04-19T03:59:31.839Z,512.00
2023-04-19T04:00:31.882Z,512.00
2023-04-19T04:01:31.937Z,512.00
2023-04-19T04:02:32.033Z,511.00
2023-04-19T04:03:32.118Z,506.00
2023-04-19T04:04:32.147Z,511.00
2023-04-19T04:05:32.129Z,513.00
2023-04-19T04:06:32.019Z,507.00
2023-04-19T04:07:32.035Z,510.00
2023-04-19T04:08:32.070Z,504.00
2023-04-19T04:09:33.073Z,504.00
2023-04-19T04:10:34.778Z,505.00
2023-04-19T04:11:32.126Z,508.00
2023-04-19T04:12:32.149Z,508.00
2023-04-19T04:13:32.166Z,514.00
2023-04-19T04:14:32.206Z,506.00
2023-04-19T04:15:32.215Z,508.00
2023-04-19T04:16:32.259Z,505.00
2023-04-19T04:17:32.315Z,510.00
2023-04-19T04:18:32.270Z,507.00
2023-04-19T04:19:32.305Z,508.00
2023-04-19T04:20:32.312Z,509.00
2023-04-19T04:21:32.343Z,511.00
2023-04-19T04:22:32.361Z,509.00
2023-04-19T04:23:32.384Z,510.00
2023-04-19T04:24:32.411Z,507.00
2023-04-19T04:25:32.433Z,511.00
2023-04-19T04:26:32.460Z,510.00
2023-04-19T04:27:32.488Z,510.00
2023-04-19T04:28:32.530Z,510.00
2023-04-19T04:29:32.552Z,511.00
2023-04-19T04:30:32.580Z,511.00
2023-04-19T04:31:32.639Z,514.00
2023-04-19T04:32:32.655Z,511.00
2023-04-19T04:33:32.663Z,511.00
2023-04-19T04:34:32.690Z,511.00
2023-04-19T04:35:34.267Z,510.00
2023-04-19T04:36:32.726Z,511.00
2023-04-19T04:37:32.746Z,511.00
2023-04-19T04:38:32.770Z,514.00
2023-04-19T04:39:32.802Z,510.00
2023-04-19T04:40:32.836Z,512.00
2023-04-19T04:41:32.839Z,509.00
2023-04-19T04:42:32.870Z,511.00
2023-04-19T04:43:32.893Z,509.00
2023-04-19T04:44:32.923Z,507.00
2023-04-19T04:45:32.953Z,508.00
2023-04-19T04:46:32.954Z,509.00
2023-04-19T04:47:33.019Z,507.00
2023-04-19T04:48:33.039Z,506.00
2023-04-19T04:49:33.029Z,509.00
2023-04-19T04:50:33.076Z,514.00
2023-04-19T04:51:33.100Z,509.00
2023-04-19T04:52:33.121Z,510.00
2023-04-19T04:53:33.135Z,511.00
2023-04-19T04:54:33.163Z,510.00
2023-04-19T04:55:33.189Z,513.00
2023-04-19T04:56:33.235Z,512.00
2023-04-19T04:57:33.205Z,510.00
2023-04-19T04:58:33.215Z,511.00
2023-04-19T04:59:33.243Z,510.00
2023-04-19T05:00:33.253Z,514.00
2023-04-19T05:01:33.799Z,515.00
2023-04-19T05:02:33.383Z,510.00
2023-04-19T05:03:33.416Z,511.00
2023-04-19T05:04:33.509Z,511.00
2023-04-19T05:05:33.552Z,511.00
2023-04-19T05:06:33.637Z,515.00
2023-04-19T05:07:33.649Z,510.00
2023-04-19T05:08:33.672Z,510.00
2023-04-19T05:09:33.708Z,510.00
2023-04-19T05:10:33.709Z,513.00
2023-04-19T05:11:33.730Z,512.00
2023-04-19T05:12:33.753Z,510.00
2023-04-19T05:13:33.787Z,511.00
2023-04-19T05:14:33.791Z,511.00
2023-04-19T05:15:33.818Z,510.00
2023-04-19T05:16:33.860Z,511.00
2023-04-19T05:17:33.873Z,512.00
2023-04-19T05:18:33.906Z,514.00
2023-04-19T05:19:33.905Z,512.00
2023-04-19T05:20:33.929Z,511.00
2023-04-19T05:21:33.945Z,512.00
2023-04-19T05:22:34.777Z,512.00
2023-04-19T05:23:34.782Z,513.00
2023-04-19T05:24:34.018Z,514.00
2023-04-19T05:25:34.040Z,522.00
2023-04-19T05:26:34.051Z,539.00
2023-04-19T05:27:34.076Z,537.00
2023-04-19T05:28:34.116Z,546.00
2023-04-19T05:29:34.120Z,552.00
2023-04-19T05:30:34.134Z,546.00
2023-04-19T05:31:35.276Z,555.00
2023-04-19T05:32:34.318Z,557.00
2023-04-19T05:33:34.326Z,556.00
2023-04-19T05:34:34.407Z,552.00
2023-04-19T05:35:34.470Z,558.00
2023-04-19T05:36:34.530Z,563.00
2023-04-19T05:37:34.581Z,558.00
2023-04-19T05:38:34.647Z,560.00
2023-04-19T05:39:34.739Z,560.00
2023-04-19T05:40:34.672Z,562.00
2023-04-19T05:41:34.704Z,564.00
2023-04-19T05:42:34.720Z,566.00
2023-04-19T05:43:34.744Z,566.00
2023-04-19T05:44:34.764Z,571.00
2023-04-19T05:45:34.785Z,568.00
2023-04-19T05:46:34.863Z,577.00
2023-04-19T05:47:34.846Z,575.00
2023-04-19T05:48:34.851Z,583.00
2023-04-19T05:49:34.870Z,577.00
2023-04-19T05:50:34.900Z,577.00
2023-04-19T05:51:34.910Z,578.00
2023-04-19T05:52:34.938Z,579.00
2023-04-19T05:53:34.974Z,581.00
2023-04-19T05:54:35.755Z,586.00
2023-04-19T05:55:35.056Z,584.00
2023-04-19T05:56:35.031Z,580.00
2023-04-19T05:57:35.054Z,585.00
2023-04-19T05:58:35.086Z,579.00
2023-04-19T05:59:35.146Z,579.00
2023-04-19T06:00:35.151Z,579.00
2023-04-19T06:01:35.178Z,583.00
2023-04-19T06:02:35.405Z,586.00
2023-04-19T06:03:35.491Z,590.00
2023-04-19T06:04:35.542Z,582.00
2023-04-19T06:05:35.473Z,589.00
2023-04-19T06:06:35.510Z,585.00
2023-04-19T06:07:40.115Z,589.00
2023-04-19T06:08:36.745Z,590.00
2023-04-19T06:09:35.684Z,590.00
2023-04-19T06:10:51.372Z,591.00
2023-04-19T06:11:43.161Z,590.00
2023-04-19T06:12:36.800Z,590.00
2023-04-19T06:13:35.711Z,592.00
2023-04-19T06:14:35.737Z,595.00
2023-04-19T06:15:35.772Z,597.00
2023-04-19T06:16:35.797Z,609.00
2023-04-19T06:17:35.853Z,605.00
2023-04-19T06:18:35.858Z,608.00
2023-04-19T06:19:35.862Z,610.00
2023-04-19T06:20:35.876Z,604.00
2023-04-19T06:21:35.894Z,607.00
2023-04-19T06:22:35.920Z,607.00
2023-04-19T06:23:35.939Z,609.00
2023-04-19T06:24:35.999Z,610.00
2023-04-19T06:25:36.125Z,609.00
2023-04-19T06:26:36.790Z,606.00
2023-04-19T06:27:36.181Z,611.00
2023-04-19T06:28:36.264Z,623.00
2023-04-19T06:29:36.311Z,636.00
2023-04-19T06:30:36.368Z,634.00
2023-04-19T06:31:36.471Z,648.00
2023-04-19T06:32:38.270Z,643.00
2023-04-19T06:33:36.611Z,644.00
2023-04-19T06:34:36.629Z,645.00
2023-04-19T06:35:36.650Z,637.00
2023-04-19T06:36:36.670Z,620.00
2023-04-19T06:37:36.752Z,609.00
2023-04-19T06:38:36.749Z,586.00
2023-04-19T06:39:36.764Z,579.00
2023-04-19T06:40:36.814Z,574.00
2023-04-19T06:41:38.815Z,557.00
2023-04-19T06:42:37.858Z,557.00
2023-04-19T06:43:36.907Z,543.00
2023-04-19T06:44:36.921Z,497.00
2023-04-19T06:45:36.950Z,418.00
2023-04-19T06:46:36.977Z,400.00
2023-04-19T06:47:37.088Z,466.00
2023-04-19T06:48:37.119Z,468.00
2023-04-19T06:49:37.134Z,473.00
2023-04-19T06:50:37.100Z,474.00
2023-04-19T06:51:37.189Z,473.00
2023-04-19T06:52:37.197Z,480.00
2023-04-19T06:53:38.043Z,496.00
2023-04-19T06:54:37.314Z,469.00
2023-04-19T06:55:37.273Z,526.00
2023-04-19T06:56:37.296Z,547.00
2023-04-19T06:57:37.314Z,534.00
2023-04-19T06:58:38.333Z,514.00
2023-04-19T06:59:37.360Z,524.00
2023-04-19T07:00:40.826Z,529.00
2023-04-19T07:01:37.495Z,544.00
2023-04-19T07:02:37.612Z,543.00
2023-04-19T07:03:37.551Z,553.00
2023-04-19T07:04:37.970Z,559.00
2023-04-19T07:05:37.486Z,559.00
2023-04-19T07:06:37.503Z,561.00
2023-04-19T07:07:37.512Z,566.00
2023-04-19T07:08:49.311Z,574.00
2023-04-19T07:09:38.598Z,560.00
2023-04-19T07:10:37.558Z,567.00
2023-04-19T07:11:37.587Z,577.00
2023-04-19T07:12:37.582Z,593.00
2023-04-19T07:13:42.473Z,624.00
2023-04-19T07:14:39.326Z,561.00
2023-04-19T07:15:39.332Z,571.00
2023-04-19T07:16:37.614Z,562.00
2023-04-19T07:17:37.707Z,574.00
2023-04-19T07:18:37.662Z,597.00
2023-04-19T07:19:37.657Z,633.00
2023-04-19T07:20:37.669Z,712.00
2023-04-19T07:21:37.683Z,773.00
2023-04-19T07:22:40.340Z,810.00
2023-04-19T07:23:37.940Z,811.00
2023-04-19T07:24:38.035Z,818.00
2023-04-19T07:25:37.978Z,846.00
2023-04-19T07:26:37.992Z,900.00
2023-04-19T07:27:38.021Z,975.00
2023-04-19T07:28:40.838Z,999.00
2023-04-19T07:29:38.044Z,1043.00
2023-04-19T07:30:38.817Z,1082.00
2023-04-19T07:31:38.224Z,1122.00
2023-04-19T07:32:38.196Z,1138.00
2023-04-19T07:33:38.054Z,1171.00
2023-04-19T07:34:38.079Z,1198.00
2023-04-19T07:35:38.066Z,1223.00
2023-04-19T07:36:38.822Z,1226.00
2023-04-19T07:37:38.819Z,1236.00
2023-04-19T07:38:38.087Z,1257.00
2023-04-19T07:39:38.148Z,1289.00
2023-04-19T07:40:38.083Z,1355.00
2023-04-19T07:41:38.089Z,1386.00
2023-04-19T07:42:38.083Z,1398.00
2023-04-19T07:43:39.259Z,1429.00
2023-04-19T07:44:38.084Z,1451.00
2023-04-19T07:45:38.377Z,1477.00
2023-04-19T07:46:38.154Z,1487.00
2023-04-19T07:47:38.174Z,1513.00
2023-04-19T07:48:38.084Z,1530.00
2023-04-19T07:49:38.149Z,1560.00
2023-04-19T07:50:38.204Z,1594.00
2023-04-19T07:51:38.228Z,1606.00
2023-04-19T07:52:38.462Z,1633.00
2023-04-19T07:53:38.359Z,1643.00
2023-04-19T07:54:38.376Z,1663.00
2023-04-19T07:55:38.445Z,1682.00
2023-04-19T07:56:40.484Z,1712.00
2023-04-19T07:57:38.604Z,1744.00
2023-04-19T07:58:38.591Z,1758.00
2023-04-19T07:59:38.635Z,1785.00
2023-04-19T08:00:38.882Z,1794.00
2023-04-19T08:01:40.487Z,1833.00
2023-04-19T08:02:38.973Z,1845.00
2023-04-19T08:03:39.034Z,1868.00
2023-04-19T08:04:39.159Z,1879.00
2023-04-19T08:05:39.033Z,1911.00
2023-04-19T08:06:39.054Z,1916.00
2023-04-19T08:07:39.117Z,1941.00
2023-04-19T08:08:40.116Z,1943.00
2023-04-19T08:09:39.351Z,1950.00
2023-04-19T08:10:39.121Z,1962.00
2023-04-19T08:11:39.117Z,2004.00
2023-04-19T08:12:47.274Z,2093.00
2023-04-19T08:13:40.517Z,1947.00
2023-04-19T08:14:56.416Z,1959.00
2023-04-19T08:16:20.528Z,1946.00
2023-04-19T08:17:06.450Z,1945.00
2023-04-19T08:17:42.408Z,1945.00
2023-04-19T08:18:39.417Z,1945.00
2023-04-19T08:19:39.435Z,1932.00
2023-04-19T08:20:39.434Z,1862.00
2023-04-19T08:21:41.438Z,1849.00
2023-04-19T08:22:39.452Z,1853.00
2023-04-19T08:23:48.023Z,1792.00
2023-04-19T08:24:41.335Z,1840.00
2023-04-19T08:25:39.485Z,1776.00
2023-04-19T08:26:40.478Z,1795.00
2023-04-19T08:27:39.479Z,1752.00
2023-04-19T08:28:41.336Z,1761.00
2023-04-19T08:29:40.372Z,1757.00
2023-04-19T08:30:39.507Z,1828.00
2023-04-19T08:31:39.538Z,1821.00
2023-04-19T08:32:39.559Z,1822.00
2023-04-19T08:33:39.525Z,1844.00
2023-04-19T08:34:39.502Z,1909.00
2023-04-19T08:35:39.512Z,1898.00
2023-04-19T08:36:48.378Z,1942.00
2023-04-19T08:37:43.915Z,1943.00
2023-04-19T08:38:39.484Z,1943.00
2023-04-19T08:39:41.383Z,1947.00
2023-04-19T08:40:39.493Z,1952.00
2023-04-19T08:41:39.504Z,1960.00
2023-04-19T08:42:39.494Z,1976.00
2023-04-19T08:43:40.572Z,2003.00
2023-04-19T08:44:51.019Z,2004.00
2023-04-19T08:45:40.554Z,2005.00
2023-04-19T08:46:39.502Z,2011.00
2023-04-19T08:48:39.621Z,2031.00
2023-04-19T08:49:41.966Z,2054.00
2023-04-19T08:50:48.768Z,2006.00
2023-04-19T08:51:40.525Z,2007.00
2023-04-19T08:52:51.810Z,2017.00
2023-04-19T08:53:40.515Z,2007.00
2023-04-19T08:54:39.521Z,2017.00
2023-04-19T08:55:40.503Z,2007.00
2023-04-19T08:56:40.524Z,2008.00
2023-04-19T08:57:39.867Z,2019.00
2023-04-19T08:58:56.835Z,2037.00
2023-04-19T08:59:40.499Z,2007.00
2023-04-19T09:00:39.495Z,2020.00
2023-04-19T09:01:44.382Z,2043.00
2023-04-19T09:02:39.660Z,2008.00
2023-04-19T09:03:55.505Z,2023.00
2023-04-19T09:04:40.784Z,2008.00
2023-04-19T09:05:39.957Z,2025.00
2023-04-19T09:06:39.812Z,2049.00
2023-04-19T09:07:40.466Z,2008.00
2023-04-19T09:08:39.467Z,2022.00
2023-04-19T09:09:48.767Z,2050.00
2023-04-19T09:10:40.870Z,2008.00
2023-04-19T09:11:39.440Z,2025.00
2023-04-19T09:12:39.426Z,2053.00
2023-04-19T09:13:40.373Z,2079.00
2023-04-19T09:14:41.430Z,2134.00
2023-04-19T09:15:39.475Z,2008.00
2023-04-19T09:16:40.278Z,2024.00
2023-04-19T09:17:39.445Z,2047.00
2023-04-19T09:18:48.798Z,2066.00
2023-04-19T09:19:40.435Z,2007.00
2023-04-19T09:20:39.459Z,2018.00
2023-04-19T09:21:39.469Z,2033.00
2023-04-19T09:22:39.446Z,2043.00
2023-04-19T09:23:39.440Z,2060.00
2023-04-19T09:25:55.037Z,2070.00
2023-04-19T09:26:39.456Z,2071.00
2023-04-19T09:27:39.454Z,2066.00
2023-04-19T09:28:39.457Z,2042.00
2023-04-19T09:29:39.468Z,2038.00
2023-04-19T09:30:50.129Z,2022.00
2023-04-19T09:31:50.943Z,2050.00
2023-04-19T09:32:40.552Z,2071.00
2023-04-19T09:33:39.575Z,2063.00
2023-04-19T09:34:39.498Z,2023.00
2023-04-19T09:35:39.509Z,2001.00
2023-04-19T09:36:39.517Z,1990.00
2023-04-19T09:38:40.522Z,1978.00
2023-04-19T09:39:40.515Z,1978.00
2023-04-19T09:40:39.515Z,1982.00
2023-04-19T09:41:41.441Z,1977.00
2023-04-19T09:42:55.482Z,1977.00
2023-04-19T09:45:09.529Z,1977.00
2023-04-19T09:45:40.556Z,1978.00
2023-04-19T09:46:39.630Z,1970.00
2023-04-19T09:47:39.624Z,1936.00
2023-04-19T09:48:39.627Z,1917.00
2023-04-19T09:49:48.529Z,1908.00
2023-04-19T09:50:53.658Z,1929.00
2023-04-19T09:51:40.604Z,1974.00
2023-04-19T09:52:39.603Z,1935.00
2023-04-19T09:53:39.614Z,1957.00
2023-04-19T09:54:39.616Z,1901.00
2023-04-19T09:55:48.949Z,1881.00
2023-04-19T09:56:40.682Z,1909.00
2023-04-19T09:57:39.653Z,1871.00
2023-04-19T09:58:51.347Z,1847.00
2023-04-19T09:59:40.678Z,1876.00
2023-04-19T10:01:39.711Z,1838.00
2023-04-19T10:02:39.881Z,1824.00
2023-04-19T10:03:39.865Z,1823.00
2023-04-19T10:05:39.902Z,1799.00
2023-04-19T10:06:58.515Z,1799.00
2023-04-19T10:07:40.905Z,1800.00
2023-04-19T10:08:39.829Z,1801.00
2023-04-19T10:09:51.804Z,1789.00
2023-04-19T10:10:42.332Z,1799.00
2023-04-19T10:11:40.121Z,1800.00
2023-04-19T10:13:40.905Z,1800.00
2023-04-19T10:14:39.912Z,1774.00
2023-04-19T10:15:50.090Z,1759.00
2023-04-19T10:16:40.993Z,1799.00
2023-04-19T10:17:40.096Z,1773.00
2023-04-19T10:18:39.994Z,1752.00
2023-04-19T10:19:40.017Z,1731.00
2023-04-19T10:20:40.035Z,1728.00
2023-04-19T10:21:40.049Z,1710.00
2023-04-19T10:22:41.920Z,1689.00
2023-04-19T10:23:40.143Z,1691.00
2023-04-19T10:24:40.621Z,1696.00
2023-04-19T10:25:40.107Z,1700.00
2023-04-19T10:26:40.127Z,1687.00
2023-04-19T10:27:40.555Z,1684.00
2023-04-19T10:28:40.201Z,1672.00
2023-04-19T10:29:40.806Z,1663.00
2023-04-19T10:30:40.295Z,1655.00
2023-04-19T10:31:41.839Z,1656.00
2023-04-19T10:32:40.249Z,1653.00
2023-04-19T10:33:40.243Z,1646.00
2023-04-19T10:34:40.275Z,1641.00
2023-04-19T10:35:40.292Z,1638.00
2023-04-19T10:36:40.285Z,1625.00
2023-04-19T10:37:40.299Z,1622.00
2023-04-19T10:38:40.351Z,1615.00
2023-04-19T10:39:40.356Z,1625.00
2023-04-19T10:40:40.393Z,1601.00
2023-04-19T10:41:40.385Z,1602.00
2023-04-19T10:42:40.375Z,1603.00
2023-04-19T10:43:40.400Z,1602.00
2023-04-19T10:44:40.406Z,1602.00
2023-04-19T10:45:41.443Z,1603.00
2023-04-19T10:46:40.518Z,1603.00
2023-04-19T10:47:40.466Z,1591.00
2023-04-19T10:48:40.456Z,1602.00
2023-04-19T10:49:40.469Z,1588.00
2023-04-19T10:50:40.509Z,1589.00
2023-04-19T10:51:40.483Z,1562.00
2023-04-19T10:52:40.500Z,1559.00
2023-04-19T10:53:40.503Z,1581.00
2023-04-19T10:54:40.544Z,1558.00
2023-04-19T10:55:40.528Z,1594.00
2023-04-19T10:56:40.533Z,1556.00
2023-04-19T10:57:40.540Z,1545.00
2023-04-19T10:58:41.038Z,1570.00
2023-04-19T10:59:40.569Z,1555.00
2023-04-19T11:00:40.620Z,1577.00
2023-04-19T11:01:40.888Z,1541.00
2023-04-19T11:02:41.023Z,1527.00
2023-04-19T11:03:40.749Z,1524.00
2023-04-19T11:04:41.487Z,1522.00
2023-04-19T11:05:40.596Z,1516.00
2023-04-19T11:06:40.615Z,1501.00
2023-04-19T11:07:40.614Z,1514.00
2023-04-19T11:08:40.625Z,1480.00
2023-04-19T11:09:40.642Z,1489.00
2023-04-19T11:10:40.748Z,1490.00
2023-04-19T11:11:40.656Z,1492.00
2023-04-19T11:12:40.675Z,1490.00
2023-04-19T11:13:40.680Z,1491.00
2023-04-19T11:14:40.664Z,1492.00
2023-04-19T11:15:40.696Z,1486.00
2023-04-19T11:16:45.997Z,1486.00
2023-04-19T11:17:41.757Z,1490.00
2023-04-19T11:18:41.399Z,1489.00
2023-04-19T11:19:40.710Z,1475.00
2023-04-19T11:20:40.771Z,1489.00
2023-04-19T11:21:40.736Z,1489.00
2023-04-19T11:22:40.754Z,1467.00
2023-04-19T11:23:40.731Z,1463.00
2023-04-19T11:24:40.732Z,1454.00
2023-04-19T11:25:42.413Z,1460.00
2023-04-19T11:26:40.755Z,1450.00
2023-04-19T11:27:40.758Z,1437.00
2023-04-19T11:28:40.769Z,1451.00
2023-04-19T11:29:40.780Z,1425.00
2023-04-19T11:30:40.788Z,1445.00
2023-04-19T11:31:40.814Z,1446.00
2023-04-19T11:32:40.846Z,1440.00
2023-04-19T11:33:40.814Z,1426.00
2023-04-19T11:34:40.817Z,1421.00
2023-04-19T11:35:40.820Z,1426.00
2023-04-19T11:36:40.845Z,1434.00
2023-04-19T11:37:40.844Z,1435.00
2023-04-19T11:38:40.854Z,1429.00
2023-04-19T11:39:40.880Z,1421.00
2023-04-19T11:40:40.881Z,1410.00
2023-04-19T11:41:40.959Z,1405.00
2023-04-19T11:42:41.090Z,1394.00
2023-04-19T11:43:40.912Z,1398.00
2023-04-19T11:44:41.011Z,1395.00
2023-04-19T11:45:41.072Z,1395.00
2023-04-19T11:46:41.038Z,1393.00
2023-04-19T11:47:40.987Z,1383.00
2023-04-19T11:48:40.954Z,1377.00
2023-04-19T11:49:40.975Z,1378.00
2023-04-19T11:50:40.961Z,1379.00
2023-04-19T11:51:40.983Z,1380.00
2023-04-19T11:52:41.107Z,1379.00
2023-04-19T11:53:41.012Z,1372.00
2023-04-19T11:54:41.002Z,1378.00
2023-04-19T11:55:41.010Z,1378.00
2023-04-19T11:56:41.022Z,1379.00
2023-04-19T11:57:41.731Z,1380.00
2023-04-19T11:58:41.056Z,1378.00
2023-04-19T11:59:42.070Z,1378.00
2023-04-19T12:00:41.997Z,1379.00
2023-04-19T12:01:41.256Z,1377.00
2023-04-19T12:02:41.256Z,1365.00
2023-04-19T12:03:41.331Z,1363.00
2023-04-19T12:04:41.322Z,1377.00
2023-04-19T12:05:41.208Z,1369.00
2023-04-19T12:06:41.151Z,1363.00
2023-04-19T12:07:42.958Z,1352.00
2023-04-19T12:08:41.182Z,1353.00
2023-04-19T12:09:42.949Z,1353.00
2023-04-19T12:10:41.222Z,1355.00
2023-04-19T12:11:41.431Z,1354.00
2023-04-19T12:12:41.261Z,1349.00
2023-04-19T12:13:41.931Z,1332.00
2023-04-19T12:14:41.294Z,1332.00
2023-04-19T12:15:41.308Z,1314.00
2023-04-19T12:16:41.420Z,1318.00
2023-04-19T12:17:54.611Z,1315.00
2023-04-19T12:18:42.349Z,1317.00
2023-04-19T12:19:41.362Z,1318.00
2023-04-19T12:20:41.390Z,1320.00
2023-04-19T12:21:41.413Z,1318.00
2023-04-19T12:22:41.419Z,1319.00
2023-04-19T12:23:41.480Z,1317.00
2023-04-19T12:24:41.449Z,1317.00
2023-04-19T12:25:41.461Z,1317.00
2023-04-19T12:26:41.483Z,1319.00